sensor_id;sensor_type;location;lat;lon;timestamp;temperature;humidity
11583;DHT22;34299;50.820;4.548;2023-12-29T00:02:09;10.40;99.90
11583;DHT22;34299;50.820;4.548;2023-12-29T00:04:36;10.40;99.90
11583;DHT22;34299;50.820;4.548;2023-12-29T00:07:03;10.60;99.90
11583;DHT22;34299;50.820;4.548;2023-12-29T00:09:31;10.50;99.90
11583;DHT22;34299;50.820;4.548;2023-12-29T00:12:06;10.40;99.90
11583;DHT22;34299;50.820;4.548;2023-12-29T00:14:33;10.30;99.90
11583;DHT22;34299;50.820;4.548;2023-12-29T00:17:03;10.30;99.90
11583;DHT22;34299;50.820;4.548;2023-12-29T00:19:30;10.40;99.90
11583;DHT22;34299;50.820;4.548;2023-12-29T00:21:57;10.30;99.90
11583;DHT22;34299;50.820;4.548;2023-12-29T00:24:25;10.30;99.90
11583;DHT22;34299;50.820;4.548;2023-12-29T00:26:53;10.30;99.90
11583;DHT22;34299;50.820;4.548;2023-12-29T00:29:20;10.30;99.90
11583;DHT22;34299;50.820;4.548;2023-12-29T00:31:47;10.40;99.90
11583;DHT22;34299;50.820;4.548;2023-12-29T00:34:14;10.30;99.90
11583;DHT22;34299;50.820;4.548;2023-12-29T00:36:41;10.30;99.90
11583;DHT22;34299;50.820;4.548;2023-12-29T00:39:08;10.30;99.90
11583;DHT22;34299;50.820;4.548;2023-12-29T00:41:35;10.40;99.90
11583;DHT22;34299;50.820;4.548;2023-12-29T00:44:03;10.40;99.90
11583;DHT22;34299;50.820;4.548;2023-12-29T00:46:30;10.40;99.90
11583;DHT22;34299;50.820;4.548;2023-12-29T00:48:57;10.30;99.90
11583;DHT22;34299;50.820;4.548;2023-12-29T00:51:24;10.30;99.90
11583;DHT22;34299;50.820;4.548;2023-12-29T00:53:51;10.40;99.90
11583;DHT22;34299;50.820;4.548;2023-12-29T00:56:18;10.30;99.90
11583;DHT22;34299;50.820;4.548;2023-12-29T00:58:45;10.40;99.90
11583;DHT22;34299;50.820;4.548;2023-12-29T01:01:13;10.30;99.90
11583;DHT22;34299;50.820;4.548;2023-12-29T01:03:40;10.30;99.90
11583;DHT22;34299;50.820;4.548;2023-12-29T01:06:07;10.20;99.90
11583;DHT22;34299;50.820;4.548;2023-12-29T01:08:34;10.20;99.90
11583;DHT22;34299;50.820;4.548;2023-12-29T01:11:01;10.30;99.90
11583;DHT22;34299;50.820;4.548;2023-12-29T01:13:28;10.30;99.90
11583;DHT22;34299;50.820;4.548;2023-12-29T01:15:55;10.20;99.90
11583;DHT22;34299;50.820;4.548;2023-12-29T01:18:23;10.00;99.90
11583;DHT22;34299;50.820;4.548;2023-12-29T01:20:50;10.30;99.90
11583;DHT22;34299;50.820;4.548;2023-12-29T01:23:17;10.40;99.90
11583;DHT22;34299;50.820;4.548;2023-12-29T01:25:44;10.30;99.90
11583;DHT22;34299;50.820;4.548;2023-12-29T01:28:11;10.40;99.90
11583;DHT22;34299;50.820;4.548;2023-12-29T01:30:38;10.40;99.90
11583;DHT22;34299;50.820;4.548;2023-12-29T01:33:05;10.40;99.90
11583;DHT22;34299;50.820;4.548;2023-12-29T01:35:33;10.40;99.90
11583;DHT22;34299;50.820;4.548;2023-12-29T01:38:02;10.40;99.90
11583;DHT22;34299;50.820;4.548;2023-12-29T01:40:29;10.60;99.90
11583;DHT22;34299;50.820;4.548;2023-12-29T01:42:56;10.40;99.90
11583;DHT22;34299;50.820;4.548;2023-12-29T01:45:24;10.40;99.90
11583;DHT22;34299;50.820;4.548;2023-12-29T01:47:52;10.50;99.90
11583;DHT22;34299;50.820;4.548;2023-12-29T01:50:19;10.40;99.90
11583;DHT22;34299;50.820;4.548;2023-12-29T01:52:49;10.50;99.90
11583;DHT22;34299;50.820;4.548;2023-12-29T01:55:18;10.50;99.90
11583;DHT22;34299;50.820;4.548;2023-12-29T01:57:47;10.50;99.90
11583;DHT22;34299;50.820;4.548;2023-12-29T02:00:15;10.50;99.90
11583;DHT22;34299;50.820;4.548;2023-12-29T02:02:43;10.60;99.90
11583;DHT22;34299;50.820;4.548;2023-12-29T02:05:13;10.50;99.90
11583;DHT22;34299;50.820;4.548;2023-12-29T02:07:41;10.60;99.90
11583;DHT22;34299;50.820;4.548;2023-12-29T02:10:09;10.60;99.90
11583;DHT22;34299;50.820;4.548;2023-12-29T02:12:39;10.40;99.90
11583;DHT22;34299;50.820;4.548;2023-12-29T02:15:07;10.50;99.90
11583;DHT22;34299;50.820;4.548;2023-12-29T02:17:39;10.50;99.90
11583;DHT22;34299;50.820;4.548;2023-12-29T02:20:09;10.60;99.90
11583;DHT22;34299;50.820;4.548;2023-12-29T02:22:36;10.60;99.90
11583;DHT22;34299;50.820;4.548;2023-12-29T02:25:05;10.60;99.90
11583;DHT22;34299;50.820;4.548;2023-12-29T02:27:49;10.50;99.90
11583;DHT22;34299;50.820;4.548;2023-12-29T02:30:23;10.50;99.90
11583;DHT22;34299;50.820;4.548;2023-12-29T02:32:55;10.50;99.90
11583;DHT22;34299;50.820;4.548;2023-12-29T02:35:25;10.60;99.90
11583;DHT22;34299;50.820;4.548;2023-12-29T02:37:54;10.70;99.90
11583;DHT22;34299;50.820;4.548;2023-12-29T02:40:23;10.60;99.90
11583;DHT22;34299;50.820;4.548;2023-12-29T02:42:50;10.60;99.90
11583;DHT22;34299;50.820;4.548;2023-12-29T02:45:17;10.70;99.90
11583;DHT22;34299;50.820;4.548;2023-12-29T02:47:44;10.70;99.90
11583;DHT22;34299;50.820;4.548;2023-12-29T02:50:11;10.40;99.90
11583;DHT22;34299;50.820;4.548;2023-12-29T02:52:38;10.60;99.90
11583;DHT22;34299;50.820;4.548;2023-12-29T02:55:06;10.60;99.90
11583;DHT22;34299;50.820;4.548;2023-12-29T02:57:34;10.60;99.90
11583;DHT22;34299;50.820;4.548;2023-12-29T03:00:01;10.60;99.90
11583;DHT22;34299;50.820;4.548;2023-12-29T03:02:29;10.60;99.90
11583;DHT22;34299;50.820;4.548;2023-12-29T03:04:56;10.60;99.90
11583;DHT22;34299;50.820;4.548;2023-12-29T03:07:23;10.60;99.90
11583;DHT22;34299;50.820;4.548;2023-12-29T03:09:51;10.60;99.90
11583;DHT22;34299;50.820;4.548;2023-12-29T03:12:18;10.60;99.90
11583;DHT22;34299;50.820;4.548;2023-12-29T03:14:46;10.70;99.90
11583;DHT22;34299;50.820;4.548;2023-12-29T03:17:13;10.60;99.90
11583;DHT22;34299;50.820;4.548;2023-12-29T03:19:40;10.60;99.90
11583;DHT22;34299;50.820;4.548;2023-12-29T03:22:07;10.60;99.90
11583;DHT22;34299;50.820;4.548;2023-12-29T03:24:34;10.60;99.90
11583;DHT22;34299;50.820;4.548;2023-12-29T03:27:19;10.50;99.90
11583;DHT22;34299;50.820;4.548;2023-12-29T03:29:47;10.80;99.90
11583;DHT22;34299;50.820;4.548;2023-12-29T03:32:15;10.50;99.90
11583;DHT22;34299;50.820;4.548;2023-12-29T03:34:43;10.50;99.90
11583;DHT22;34299;50.820;4.548;2023-12-29T03:37:10;10.50;99.90
11583;DHT22;34299;50.820;4.548;2023-12-29T03:39:37;10.50;99.90
11583;DHT22;34299;50.820;4.548;2023-12-29T03:42:04;10.40;99.90
11583;DHT22;34299;50.820;4.548;2023-12-29T03:44:31;10.50;99.90
11583;DHT22;34299;50.820;4.548;2023-12-29T03:47:12;10.40;99.90
11583;DHT22;34299;50.820;4.548;2023-12-29T03:49:39;10.40;99.90
11583;DHT22;34299;50.820;4.548;2023-12-29T03:52:06;10.40;99.90
11583;DHT22;34299;50.820;4.548;2023-12-29T03:54:35;10.40;99.90
11583;DHT22;34299;50.820;4.548;2023-12-29T03:57:03;10.10;99.90
11583;DHT22;34299;50.820;4.548;2023-12-29T03:59:30;10.40;99.90
11583;DHT22;34299;50.820;4.548;2023-12-29T04:01:57;10.40;99.90
11583;DHT22;34299;50.820;4.548;2023-12-29T04:04:25;10.20;99.90
11583;DHT22;34299;50.820;4.548;2023-12-29T04:06:52;10.20;99.90
11583;DHT22;34299;50.820;4.548;2023-12-29T04:09:19;10.10;99.90
11583;DHT22;34299;50.820;4.548;2023-12-29T04:11:47;10.20;99.90
11583;DHT22;34299;50.820;4.548;2023-12-29T04:14:14;10.30;99.90
11583;DHT22;34299;50.820;4.548;2023-12-29T04:16:41;10.40;99.90
11583;DHT22;34299;50.820;4.548;2023-12-29T04:19:08;10.40;99.90
11583;DHT22;34299;50.820;4.548;2023-12-29T04:21:37;10.20;99.90
11583;DHT22;34299;50.820;4.548;2023-12-29T04:24:04;10.20;99.90
11583;DHT22;34299;50.820;4.548;2023-12-29T04:26:35;10.20;99.90
11583;DHT22;34299;50.820;4.548;2023-12-29T04:29:02;10.10;99.90
11583;DHT22;34299;50.820;4.548;2023-12-29T04:31:29;10.00;99.90
11583;DHT22;34299;50.820;4.548;2023-12-29T04:33:56;10.10;99.90
11583;DHT22;34299;50.820;4.548;2023-12-29T04:36:23;10.10;99.90
11583;DHT22;34299;50.820;4.548;2023-12-29T04:38:51;10.00;99.90
11583;DHT22;34299;50.820;4.548;2023-12-29T04:41:18;10.10;99.90
11583;DHT22;34299;50.820;4.548;2023-12-29T04:43:45;10.10;99.90
11583;DHT22;34299;50.820;4.548;2023-12-29T04:46:12;10.10;99.90
11583;DHT22;34299;50.820;4.548;2023-12-29T04:48:39;10.10;99.90
11583;DHT22;34299;50.820;4.548;2023-12-29T04:51:06;10.20;99.90
11583;DHT22;34299;50.820;4.548;2023-12-29T04:53:32;10.20;99.90
11583;DHT22;34299;50.820;4.548;2023-12-29T04:56:01;10.10;99.90
11583;DHT22;34299;50.820;4.548;2023-12-29T04:58:28;10.10;99.90
11583;DHT22;34299;50.820;4.548;2023-12-29T05:00:54;10.20;99.90
11583;DHT22;34299;50.820;4.548;2023-12-29T05:03:21;10.20;99.90
11583;DHT22;34299;50.820;4.548;2023-12-29T05:05:48;10.20;99.90
11583;DHT22;34299;50.820;4.548;2023-12-29T05:08:15;10.20;99.90
11583;DHT22;34299;50.820;4.548;2023-12-29T05:10:42;10.30;99.90
11583;DHT22;34299;50.820;4.548;2023-12-29T05:13:10;10.40;99.90
11583;DHT22;34299;50.820;4.548;2023-12-29T05:15:37;10.20;99.90
11583;DHT22;34299;50.820;4.548;2023-12-29T05:18:05;10.20;99.90
11583;DHT22;34299;50.820;4.548;2023-12-29T05:20:32;10.30;99.90
11583;DHT22;34299;50.820;4.548;2023-12-29T05:22:59;10.30;99.90
11583;DHT22;34299;50.820;4.548;2023-12-29T05:25:26;10.30;99.90
11583;DHT22;34299;50.820;4.548;2023-12-29T05:27:53;10.30;99.90
11583;DHT22;34299;50.820;4.548;2023-12-29T05:30:21;10.40;99.90
11583;DHT22;34299;50.820;4.548;2023-12-29T05:32:48;10.30;99.90
11583;DHT22;34299;50.820;4.548;2023-12-29T05:35:16;10.30;99.90
11583;DHT22;34299;50.820;4.548;2023-12-29T05:37:43;10.20;99.90
11583;DHT22;34299;50.820;4.548;2023-12-29T05:40:11;10.20;99.90
11583;DHT22;34299;50.820;4.548;2023-12-29T05:42:38;10.20;99.90
11583;DHT22;34299;50.820;4.548;2023-12-29T05:45:05;10.20;99.90
11583;DHT22;34299;50.820;4.548;2023-12-29T05:47:34;10.20;99.90
11583;DHT22;34299;50.820;4.548;2023-12-29T05:50:01;10.30;99.90
11583;DHT22;34299;50.820;4.548;2023-12-29T05:52:28;10.30;99.90
11583;DHT22;34299;50.820;4.548;2023-12-29T05:54:55;10.30;99.90
11583;DHT22;34299;50.820;4.548;2023-12-29T05:57:22;10.20;99.90
11583;DHT22;34299;50.820;4.548;2023-12-29T05:59:49;10.30;99.90
11583;DHT22;34299;50.820;4.548;2023-12-29T06:02:16;10.30;99.90
11583;DHT22;34299;50.820;4.548;2023-12-29T06:04:44;10.40;99.90
11583;DHT22;34299;50.820;4.548;2023-12-29T06:07:11;10.50;99.90
11583;DHT22;34299;50.820;4.548;2023-12-29T06:09:38;10.30;99.90
11583;DHT22;34299;50.820;4.548;2023-12-29T06:12:05;10.30;99.90
11583;DHT22;34299;50.820;4.548;2023-12-29T06:14:32;10.10;99.90
11583;DHT22;34299;50.820;4.548;2023-12-29T06:16:59;10.30;99.90
11583;DHT22;34299;50.820;4.548;2023-12-29T06:19:27;10.10;99.90
11583;DHT22;34299;50.820;4.548;2023-12-29T06:21:55;9.80;99.90
11583;DHT22;34299;50.820;4.548;2023-12-29T06:24:22;9.60;99.90
11583;DHT22;34299;50.820;4.548;2023-12-29T06:26:49;9.50;99.90
11583;DHT22;34299;50.820;4.548;2023-12-29T06:29:16;9.50;99.90
11583;DHT22;34299;50.820;4.548;2023-12-29T06:31:43;9.50;99.90
11583;DHT22;34299;50.820;4.548;2023-12-29T06:34:10;9.50;99.90
11583;DHT22;34299;50.820;4.548;2023-12-29T06:36:37;9.60;99.90
11583;DHT22;34299;50.820;4.548;2023-12-29T06:39:06;9.40;99.90
11583;DHT22;34299;50.820;4.548;2023-12-29T06:41:33;9.40;99.90
11583;DHT22;34299;50.820;4.548;2023-12-29T06:44:00;9.40;99.90
11583;DHT22;34299;50.820;4.548;2023-12-29T06:46:27;9.40;99.90
11583;DHT22;34299;50.820;4.548;2023-12-29T06:48:54;9.40;99.90
11583;DHT22;34299;50.820;4.548;2023-12-29T06:51:21;9.40;99.90
11583;DHT22;34299;50.820;4.548;2023-12-29T06:53:49;9.40;99.90
11583;DHT22;34299;50.820;4.548;2023-12-29T06:56:18;9.40;99.90
11583;DHT22;34299;50.820;4.548;2023-12-29T06:58:45;9.30;99.90
11583;DHT22;34299;50.820;4.548;2023-12-29T07:01:12;9.30;99.90
11583;DHT22;34299;50.820;4.548;2023-12-29T07:03:39;9.40;99.90
11583;DHT22;34299;50.820;4.548;2023-12-29T07:06:06;9.40;99.90
11583;DHT22;34299;50.820;4.548;2023-12-29T07:08:34;9.40;99.90
11583;DHT22;34299;50.820;4.548;2023-12-29T07:11:01;9.50;99.90
11583;DHT22;34299;50.820;4.548;2023-12-29T07:13:29;9.40;99.90
11583;DHT22;34299;50.820;4.548;2023-12-29T07:15:56;9.40;99.90
11583;DHT22;34299;50.820;4.548;2023-12-29T07:18:23;9.40;99.90
11583;DHT22;34299;50.820;4.548;2023-12-29T07:20:50;9.50;99.90
11583;DHT22;34299;50.820;4.548;2023-12-29T07:23:17;9.50;99.90
11583;DHT22;34299;50.820;4.548;2023-12-29T07:25:44;9.50;99.90
11583;DHT22;34299;50.820;4.548;2023-12-29T07:28:11;9.50;99.90
11583;DHT22;34299;50.820;4.548;2023-12-29T07:30:40;9.50;99.90
11583;DHT22;34299;50.820;4.548;2023-12-29T07:33:07;9.50;99.90
11583;DHT22;34299;50.820;4.548;2023-12-29T07:35:33;9.60;99.90
11583;DHT22;34299;50.820;4.548;2023-12-29T07:38:00;9.50;99.90
11583;DHT22;34299;50.820;4.548;2023-12-29T07:40:28;9.50;99.90
11583;DHT22;34299;50.820;4.548;2023-12-29T07:42:55;9.40;99.90
11583;DHT22;34299;50.820;4.548;2023-12-29T07:45:21;9.60;99.90
11583;DHT22;34299;50.820;4.548;2023-12-29T07:47:50;9.40;99.90
11583;DHT22;34299;50.820;4.548;2023-12-29T07:50:17;9.60;99.90
11583;DHT22;34299;50.820;4.548;2023-12-29T07:52:44;9.70;99.90
11583;DHT22;34299;50.820;4.548;2023-12-29T07:55:11;9.70;99.90
11583;DHT22;34299;50.820;4.548;2023-12-29T07:57:38;9.80;99.90
11583;DHT22;34299;50.820;4.548;2023-12-29T08:00:06;9.90;99.90
11583;DHT22;34299;50.820;4.548;2023-12-29T08:02:33;9.70;99.90
11583;DHT22;34299;50.820;4.548;2023-12-29T08:05:02;9.70;99.90
11583;DHT22;34299;50.820;4.548;2023-12-29T08:07:29;9.80;99.90
11583;DHT22;34299;50.820;4.548;2023-12-29T08:09:56;9.80;99.90
11583;DHT22;34299;50.820;4.548;2023-12-29T08:12:23;9.70;99.90
11583;DHT22;34299;50.820;4.548;2023-12-29T08:14:50;9.70;99.90
11583;DHT22;34299;50.820;4.548;2023-12-29T08:17:17;9.90;99.90
11583;DHT22;34299;50.820;4.548;2023-12-29T08:19:44;9.80;99.90
11583;DHT22;34299;50.820;4.548;2023-12-29T08:22:12;9.70;99.90
11583;DHT22;34299;50.820;4.548;2023-12-29T08:24:40;9.80;99.90
11583;DHT22;34299;50.820;4.548;2023-12-29T08:27:08;9.70;99.90
11583;DHT22;34299;50.820;4.548;2023-12-29T08:29:36;9.80;99.90
11583;DHT22;34299;50.820;4.548;2023-12-29T08:32:03;9.70;99.90
11583;DHT22;34299;50.820;4.548;2023-12-29T08:34:30;9.70;99.90
11583;DHT22;34299;50.820;4.548;2023-12-29T08:36:57;9.90;99.90
11583;DHT22;34299;50.820;4.548;2023-12-29T08:39:26;9.90;99.90
11583;DHT22;34299;50.820;4.548;2023-12-29T08:41:53;9.80;99.90
11583;DHT22;34299;50.820;4.548;2023-12-29T08:44:19;9.90;99.90
11583;DHT22;34299;50.820;4.548;2023-12-29T08:46:46;9.90;99.90
11583;DHT22;34299;50.820;4.548;2023-12-29T08:49:13;9.90;99.90
11583;DHT22;34299;50.820;4.548;2023-12-29T08:51:40;10.00;99.90
11583;DHT22;34299;50.820;4.548;2023-12-29T08:54:07;9.90;99.90
11583;DHT22;34299;50.820;4.548;2023-12-29T08:56:35;10.00;99.90
11583;DHT22;34299;50.820;4.548;2023-12-29T08:59:02;10.10;99.90
11583;DHT22;34299;50.820;4.548;2023-12-29T09:01:29;10.10;99.90
11583;DHT22;34299;50.820;4.548;2023-12-29T09:03:56;10.00;99.90
11583;DHT22;34299;50.820;4.548;2023-12-29T09:06:23;10.10;99.90
11583;DHT22;34299;50.820;4.548;2023-12-29T09:08:50;9.90;99.90
11583;DHT22;34299;50.820;4.548;2023-12-29T09:11:17;9.80;99.90
11583;DHT22;34299;50.820;4.548;2023-12-29T09:13:45;9.90;99.90
11583;DHT22;34299;50.820;4.548;2023-12-29T09:16:12;10.00;99.90
11583;DHT22;34299;50.820;4.548;2023-12-29T09:18:39;10.00;99.90
11583;DHT22;34299;50.820;4.548;2023-12-29T09:21:06;9.90;99.90
11583;DHT22;34299;50.820;4.548;2023-12-29T09:23:33;10.10;99.90
11583;DHT22;34299;50.820;4.548;2023-12-29T09:26:03;10.00;99.90
11583;DHT22;34299;50.820;4.548;2023-12-29T09:28:32;10.20;99.90
11583;DHT22;34299;50.820;4.548;2023-12-29T09:31:00;10.20;99.90
11583;DHT22;34299;50.820;4.548;2023-12-29T09:33:28;10.10;99.90
11583;DHT22;34299;50.820;4.548;2023-12-29T09:35:54;10.20;99.90
11583;DHT22;34299;50.820;4.548;2023-12-29T09:38:21;10.20;99.90
11583;DHT22;34299;50.820;4.548;2023-12-29T09:40:48;10.30;99.90
11583;DHT22;34299;50.820;4.548;2023-12-29T09:43:16;10.30;99.90
11583;DHT22;34299;50.820;4.548;2023-12-29T09:45:44;10.30;99.90
11583;DHT22;34299;50.820;4.548;2023-12-29T09:48:15;10.50;99.90
11583;DHT22;34299;50.820;4.548;2023-12-29T09:50:45;10.50;99.90
11583;DHT22;34299;50.820;4.548;2023-12-29T09:53:13;10.50;99.90
11583;DHT22;34299;50.820;4.548;2023-12-29T09:55:40;10.50;99.90
11583;DHT22;34299;50.820;4.548;2023-12-29T09:58:08;10.70;99.90
11583;DHT22;34299;50.820;4.548;2023-12-29T10:00:37;10.70;99.90
11583;DHT22;34299;50.820;4.548;2023-12-29T10:03:06;10.70;99.90
11583;DHT22;34299;50.820;4.548;2023-12-29T10:05:34;10.60;99.90
11583;DHT22;34299;50.820;4.548;2023-12-29T10:08:03;10.50;99.90
11583;DHT22;34299;50.820;4.548;2023-12-29T10:10:32;10.50;99.90
11583;DHT22;34299;50.820;4.548;2023-12-29T10:13:00;10.60;99.90
11583;DHT22;34299;50.820;4.548;2023-12-29T10:15:37;10.70;99.90
11583;DHT22;34299;50.820;4.548;2023-12-29T10:18:10;10.60;99.90
11583;DHT22;34299;50.820;4.548;2023-12-29T10:20:45;10.40;99.90
11583;DHT22;34299;50.820;4.548;2023-12-29T10:23:19;10.50;99.90
11583;DHT22;34299;50.820;4.548;2023-12-29T10:25:47;10.70;99.90
11583;DHT22;34299;50.820;4.548;2023-12-29T10:28:16;10.60;99.90
11583;DHT22;34299;50.820;4.548;2023-12-29T10:30:44;10.70;99.90
11583;DHT22;34299;50.820;4.548;2023-12-29T10:33:11;10.70;99.90
11583;DHT22;34299;50.820;4.548;2023-12-29T10:35:57;10.70;99.90
11583;DHT22;34299;50.820;4.548;2023-12-29T10:38:27;10.70;99.90
11583;DHT22;34299;50.820;4.548;2023-12-29T10:40:54;10.80;99.90
11583;DHT22;34299;50.820;4.548;2023-12-29T10:43:23;10.70;99.90
11583;DHT22;34299;50.820;4.548;2023-12-29T10:46:05;10.80;99.90
11583;DHT22;34299;50.820;4.548;2023-12-29T10:48:33;10.80;99.90
11583;DHT22;34299;50.820;4.548;2023-12-29T10:51:01;10.80;99.90
11583;DHT22;34299;50.820;4.548;2023-12-29T10:53:29;10.80;99.90
11583;DHT22;34299;50.820;4.548;2023-12-29T10:55:56;10.70;99.90
11583;DHT22;34299;50.820;4.548;2023-12-29T10:58:24;10.70;99.90
11583;DHT22;34299;50.820;4.548;2023-12-29T11:00:53;10.70;99.90
11583;DHT22;34299;50.820;4.548;2023-12-29T11:03:20;10.70;99.90
11583;DHT22;34299;50.820;4.548;2023-12-29T11:05:47;10.80;99.90
11583;DHT22;34299;50.820;4.548;2023-12-29T11:08:17;10.80;99.90
11583;DHT22;34299;50.820;4.548;2023-12-29T11:10:45;10.80;99.90
11583;DHT22;34299;50.820;4.548;2023-12-29T11:13:12;10.90;99.90
11583;DHT22;34299;50.820;4.548;2023-12-29T11:15:42;10.90;99.90
11583;DHT22;34299;50.820;4.548;2023-12-29T11:18:12;11.00;99.90
11583;DHT22;34299;50.820;4.548;2023-12-29T11:20:41;11.10;99.90
11583;DHT22;34299;50.820;4.548;2023-12-29T11:23:09;11.10;99.90
11583;DHT22;34299;50.820;4.548;2023-12-29T11:25:38;11.10;99.90
11583;DHT22;34299;50.820;4.548;2023-12-29T11:28:06;11.10;99.90
11583;DHT22;34299;50.820;4.548;2023-12-29T11:30:35;11.00;99.90
11583;DHT22;34299;50.820;4.548;2023-12-29T11:33:08;11.10;99.90
11583;DHT22;34299;50.820;4.548;2023-12-29T11:35:40;11.10;99.90
11583;DHT22;34299;50.820;4.548;2023-12-29T11:38:23;11.10;99.90
11583;DHT22;34299;50.820;4.548;2023-12-29T11:41:00;11.00;99.90
11583;DHT22;34299;50.820;4.548;2023-12-29T11:43:28;11.10;99.90
11583;DHT22;34299;50.820;4.548;2023-12-29T11:45:55;11.10;99.90
11583;DHT22;34299;50.820;4.548;2023-12-29T11:48:53;11.10;99.90
11583;DHT22;34299;50.820;4.548;2023-12-29T11:51:31;11.00;99.90
11583;DHT22;34299;50.820;4.548;2023-12-29T11:53:58;11.00;99.90
11583;DHT22;34299;50.820;4.548;2023-12-29T11:56:33;11.00;99.90
11583;DHT22;34299;50.820;4.548;2023-12-29T11:59:13;10.90;99.90
11583;DHT22;34299;50.820;4.548;2023-12-29T12:01:40;10.90;99.90
11583;DHT22;34299;50.820;4.548;2023-12-29T12:07:06;10.70;99.90
11583;DHT22;34299;50.820;4.548;2023-12-29T12:09:33;10.70;99.90
11583;DHT22;34299;50.820;4.548;2023-12-29T12:12:02;10.60;99.90
11583;DHT22;34299;50.820;4.548;2023-12-29T12:14:44;10.60;99.90
11583;DHT22;34299;50.820;4.548;2023-12-29T12:17:11;10.50;99.90
11583;DHT22;34299;50.820;4.548;2023-12-29T12:19:39;10.40;99.90
11583;DHT22;34299;50.820;4.548;2023-12-29T12:22:06;10.30;99.90
11583;DHT22;34299;50.820;4.548;2023-12-29T12:24:36;10.30;99.90
11583;DHT22;34299;50.820;4.548;2023-12-29T12:27:09;10.60;99.90
11583;DHT22;34299;50.820;4.548;2023-12-29T12:29:36;10.50;99.90
11583;DHT22;34299;50.820;4.548;2023-12-29T12:32:04;10.50;99.90
11583;DHT22;34299;50.820;4.548;2023-12-29T12:34:37;10.40;99.90
11583;DHT22;34299;50.820;4.548;2023-12-29T12:37:05;10.40;99.90
11583;DHT22;34299;50.820;4.548;2023-12-29T12:39:39;10.50;99.90
11583;DHT22;34299;50.820;4.548;2023-12-29T12:42:07;10.40;99.90
11583;DHT22;34299;50.820;4.548;2023-12-29T12:44:38;10.40;99.90
11583;DHT22;34299;50.820;4.548;2023-12-29T12:47:08;10.50;99.90
11583;DHT22;34299;50.820;4.548;2023-12-29T12:49:35;10.40;99.90
11583;DHT22;34299;50.820;4.548;2023-12-29T12:52:03;10.40;99.90
11583;DHT22;34299;50.820;4.548;2023-12-29T12:54:31;10.50;99.90
11583;DHT22;34299;50.820;4.548;2023-12-29T12:56:58;10.50;99.90
11583;DHT22;34299;50.820;4.548;2023-12-29T12:59:27;10.50;99.90
11583;DHT22;34299;50.820;4.548;2023-12-29T13:01:54;10.50;99.90
11583;DHT22;34299;50.820;4.548;2023-12-29T13:04:21;10.50;99.90
11583;DHT22;34299;50.820;4.548;2023-12-29T13:06:48;10.50;99.90
11583;DHT22;34299;50.820;4.548;2023-12-29T13:09:16;10.60;99.90
11583;DHT22;34299;50.820;4.548;2023-12-29T13:11:45;10.60;99.90
11583;DHT22;34299;50.820;4.548;2023-12-29T13:14:19;10.60;99.90
11583;DHT22;34299;50.820;4.548;2023-12-29T13:16:48;10.60;99.90
11583;DHT22;34299;50.820;4.548;2023-12-29T13:19:17;10.50;99.90
11583;DHT22;34299;50.820;4.548;2023-12-29T13:21:47;10.60;99.90
11583;DHT22;34299;50.820;4.548;2023-12-29T13:24:14;10.70;99.90
11583;DHT22;34299;50.820;4.548;2023-12-29T13:26:44;10.60;99.90
11583;DHT22;34299;50.820;4.548;2023-12-29T13:29:13;10.70;99.90
11583;DHT22;34299;50.820;4.548;2023-12-29T13:31:40;10.60;99.90
11583;DHT22;34299;50.820;4.548;2023-12-29T13:34:14;10.60;99.90
11583;DHT22;34299;50.820;4.548;2023-12-29T13:36:49;10.50;99.90
11583;DHT22;34299;50.820;4.548;2023-12-29T13:39:26;10.50;99.90
11583;DHT22;34299;50.820;4.548;2023-12-29T13:41:55;10.60;99.90
11583;DHT22;34299;50.820;4.548;2023-12-29T13:44:23;10.50;99.90
11583;DHT22;34299;50.820;4.548;2023-12-29T13:46:52;10.60;99.90
11583;DHT22;34299;50.820;4.548;2023-12-29T13:49:21;10.50;99.90
11583;DHT22;34299;50.820;4.548;2023-12-29T13:51:48;10.50;99.90
11583;DHT22;34299;50.820;4.548;2023-12-29T13:54:15;10.50;99.90
11583;DHT22;34299;50.820;4.548;2023-12-29T13:56:51;10.40;99.90
11583;DHT22;34299;50.820;4.548;2023-12-29T13:59:19;10.20;99.90
11583;DHT22;34299;50.820;4.548;2023-12-29T14:01:46;10.20;99.90
11583;DHT22;34299;50.820;4.548;2023-12-29T14:04:15;10.40;99.90
11583;DHT22;34299;50.820;4.548;2023-12-29T14:06:51;10.30;99.90
11583;DHT22;34299;50.820;4.548;2023-12-29T14:09:21;10.30;99.90
11583;DHT22;34299;50.820;4.548;2023-12-29T14:11:48;10.30;99.90
11583;DHT22;34299;50.820;4.548;2023-12-29T14:14:21;10.40;99.90
11583;DHT22;34299;50.820;4.548;2023-12-29T14:16:50;10.30;99.90
11583;DHT22;34299;50.820;4.548;2023-12-29T14:19:17;10.30;99.90
11583;DHT22;34299;50.820;4.548;2023-12-29T14:21:45;10.30;99.90
11583;DHT22;34299;50.820;4.548;2023-12-29T14:24:15;10.30;99.90
11583;DHT22;34299;50.820;4.548;2023-12-29T14:26:43;10.20;99.90
11583;DHT22;34299;50.820;4.548;2023-12-29T14:29:22;10.30;99.90
11583;DHT22;34299;50.820;4.548;2023-12-29T14:31:49;10.30;99.90
11583;DHT22;34299;50.820;4.548;2023-12-29T14:34:17;10.30;99.90
11583;DHT22;34299;50.820;4.548;2023-12-29T14:36:44;10.20;99.90
11583;DHT22;34299;50.820;4.548;2023-12-29T14:39:11;10.30;99.90
11583;DHT22;34299;50.820;4.548;2023-12-29T14:41:40;10.30;99.90
11583;DHT22;34299;50.820;4.548;2023-12-29T14:44:07;10.20;99.90
11583;DHT22;34299;50.820;4.548;2023-12-29T14:46:34;10.30;99.90
11583;DHT22;34299;50.820;4.548;2023-12-29T14:49:02;10.30;99.90
11583;DHT22;34299;50.820;4.548;2023-12-29T14:51:29;10.30;99.90
11583;DHT22;34299;50.820;4.548;2023-12-29T14:53:56;10.30;99.90
11583;DHT22;34299;50.820;4.548;2023-12-29T14:56:23;10.40;99.90
11583;DHT22;34299;50.820;4.548;2023-12-29T14:58:51;10.40;99.90
11583;DHT22;34299;50.820;4.548;2023-12-29T15:01:18;10.40;99.90
11583;DHT22;34299;50.820;4.548;2023-12-29T15:03:45;10.40;99.90
11583;DHT22;34299;50.820;4.548;2023-12-29T15:06:12;10.30;99.90
11583;DHT22;34299;50.820;4.548;2023-12-29T15:08:39;10.50;99.90
11583;DHT22;34299;50.820;4.548;2023-12-29T15:11:07;10.50;99.90
11583;DHT22;34299;50.820;4.548;2023-12-29T15:13:34;10.40;99.90
11583;DHT22;34299;50.820;4.548;2023-12-29T15:16:05;10.30;99.90
11583;DHT22;34299;50.820;4.548;2023-12-29T15:18:32;10.40;99.90
11583;DHT22;34299;50.820;4.548;2023-12-29T15:20:59;10.30;99.90
11583;DHT22;34299;50.820;4.548;2023-12-29T15:23:27;10.30;99.90
11583;DHT22;34299;50.820;4.548;2023-12-29T15:25:54;10.30;99.90
11583;DHT22;34299;50.820;4.548;2023-12-29T15:28:20;10.40;99.90
11583;DHT22;34299;50.820;4.548;2023-12-29T15:30:47;10.40;99.90
11583;DHT22;34299;50.820;4.548;2023-12-29T15:33:16;10.50;99.90
11583;DHT22;34299;50.820;4.548;2023-12-29T15:35:44;10.40;99.90
11583;DHT22;34299;50.820;4.548;2023-12-29T15:38:11;10.40;99.90
11583;DHT22;34299;50.820;4.548;2023-12-29T15:40:39;10.30;99.90
11583;DHT22;34299;50.820;4.548;2023-12-29T15:43:06;10.40;99.90